NCAR-RAP Real-Time Weather Data

Output produced by METARs form (17 September 2019  17:03 UTC)
found at http://weather.rap.ucar.edu/surface/
 
KWMC 171656Z AUTO VRB03KT 10SM CLR 13/01 A3014 RMK AO2 SLP185 T01330006
KWMC 171556Z AUTO 21004KT 10SM CLR 11/01 A3013 RMK AO2 SLP186 T01110006
KWMC 171456Z AUTO 22003KT 10SM CLR 06/00 A3012 RMK AO2 SLP188 T00610000 53015
KWMC 171356Z AUTO 00000KT 10SM CLR 03/M01 A3011 RMK AO2 SLP184 T00281011
KWMC 171256Z AUTO 20004KT 10SM CLR 03/M01 A3008 RMK AO2 SLP175 T00281011
KWMC 171156Z AUTO 00000KT 10SM CLR 02/M02 A3008 RMK AO2 SLP174 T00171017 10100 20011 53006
KWMC 171056Z AUTO 00000KT 10SM CLR 05/00 A3007 RMK AO2 SLP168 T00500000
KWMC 170956Z AUTO 35005KT 10SM BKN070 07/01 A3006 RMK AO2 SLP164 T00670006
KWMC 170856Z AUTO 06004KT 10SM FEW050 08/01 A3006 RMK AO2 SLP154 T00780006 53013
KWMC 170756Z AUTO 02006KT 10SM OVC065 09/01 A3003 RMK AO2 SLP137 T00940011 402500072
KWMC 170656Z AUTO 25007KT 10SM CLR 08/01 A3001 RMK AO2 SLP132 T00780006
KWMC 170556Z AUTO 29004KT 10SM FEW090 08/01 A3001 RMK AO2 SLP132 60000 T00830011 10150 20083 53015
KWMC 170456Z AUTO 27004KT 10SM FEW075 11/02 A2999 RMK AO2 SLP123 T01110017
KWMC 170356Z AUTO 23013KT 10SM CLR 11/01 A2996 RMK AO2 SLP117 T01110011
KWMC 170256Z AUTO VRB04KT 10SM OVC050 13/02 A2996 RMK AO2 SLP117 60000 T01280017 53018
KWMC 170056Z AUTO 24011G17KT 10SM SCT075 BKN095 BKN110 15/M04 A2989 RMK AO2 PK WND 22028/0000 RAE05 SLP092 P0000 T01501039
KWMC 162356Z AUTO 24018G24KT 10SM -RA FEW055 BKN080 OVC095 15/M01 A2990 RMK AO2 PK WND 24026/2340 RAB55 SLP093 P0000 60000 T01501006 10250 20128 50021
KWMC 162256Z AUTO 30011G20KT 10SM SCT075 BKN120 13/01 A2991 RMK AO2 PK WND 29035/2201 SLP097 T01330006
KWMC 162212Z AUTO 27021G34KT 10SM FEW029 BKN040 13/02 A2991 RMK AO2 PK WND 29035/2201 T01280017